createdAt,value
2018-07-14T00:00:34.280Z,17.52
2018-07-14T00:01:37.211Z,17.31
2018-07-14T00:02:41.479Z,17.21
2018-07-14T00:03:44.480Z,17.07
2018-07-14T00:04:47.367Z,16.89
2018-07-14T00:05:50.245Z,16.85
2018-07-14T00:06:53.044Z,16.75
2018-07-14T00:07:56.990Z,16.72
2018-07-14T00:09:00.174Z,16.54
2018-07-14T00:10:03.327Z,16.42
2018-07-14T00:11:08.133Z,16.48
2018-07-14T00:12:11.013Z,16.70
2018-07-14T00:13:13.852Z,16.84
2018-07-14T00:14:16.713Z,16.97
2018-07-14T00:15:19.850Z,17.06
2018-07-14T00:16:22.718Z,16.84
2018-07-14T00:17:26.454Z,16.63
2018-07-14T00:18:29.333Z,16.46
2018-07-14T00:19:33.459Z,16.44
2018-07-14T00:20:36.286Z,16.38
2018-07-14T00:21:40.398Z,16.39
2018-07-14T00:22:43.257Z,16.30
2018-07-14T00:23:46.745Z,16.27
2018-07-14T00:24:50.254Z,16.40
2018-07-14T00:25:57.863Z,16.47
2018-07-14T00:27:02.047Z,16.45
2018-07-14T00:28:05.171Z,16.34
2018-07-14T00:29:08.004Z,16.40
2018-07-14T00:30:11.410Z,16.46
2018-07-14T00:31:14.238Z,16.30
2018-07-14T00:32:17.092Z,16.17
2018-07-14T00:33:19.995Z,16.29
2018-07-14T00:34:23.757Z,16.43
2018-07-14T00:35:26.733Z,16.39
2018-07-14T00:36:30.293Z,16.32
2018-07-14T00:37:33.145Z,16.31
2018-07-14T00:38:37.051Z,16.32
2018-07-14T00:39:39.894Z,16.17
2018-07-14T00:40:43.030Z,16.12
2018-07-14T00:41:46.477Z,16.00
2018-07-14T00:42:49.353Z,16.20
2018-07-14T00:43:52.989Z,16.23
2018-07-14T00:44:55.825Z,16.31
2018-07-14T00:45:59.093Z,16.35
2018-07-14T00:47:02.246Z,16.20
2018-07-14T00:48:05.318Z,16.16
2018-07-14T00:49:08.826Z,15.99
2018-07-14T00:50:11.661Z,15.89
2018-07-14T00:51:14.505Z,15.70
2018-07-14T00:52:20.869Z,15.56
2018-07-14T00:53:23.711Z,15.76
2018-07-14T00:54:26.548Z,15.39
2018-07-14T00:55:30.562Z,15.44
2018-07-14T00:56:34.270Z,15.54
2018-07-14T00:57:37.134Z,15.49
2018-07-14T00:58:39.962Z,15.51
2018-07-14T00:59:43.084Z,15.45
2018-07-14T01:00:47.188Z,15.47
2018-07-14T01:01:51.684Z,15.59
2018-07-14T01:02:55.497Z,15.64
2018-07-14T01:03:59.576Z,15.64
2018-07-14T01:05:02.384Z,15.76
2018-07-14T01:06:06.837Z,15.91
2018-07-14T01:07:10.573Z,15.81
2018-07-14T01:08:14.272Z,15.69
2018-07-14T01:09:17.084Z,15.71
2018-07-14T01:10:19.892Z,15.77
2018-07-14T01:11:22.714Z,15.71
2018-07-14T01:12:26.794Z,15.59
2018-07-14T01:13:29.624Z,15.50
2018-07-14T01:14:32.545Z,15.59
2018-07-14T01:15:36.978Z,15.81
2018-07-14T01:16:40.910Z,16.06
2018-07-14T01:17:43.745Z,16.20
2018-07-14T01:18:46.822Z,16.34
2018-07-14T01:19:50.081Z,16.33
2018-07-14T01:20:52.890Z,16.34
2018-07-14T01:21:57.270Z,16.31
2018-07-14T01:23:00.138Z,16.40
2018-07-14T01:24:03.104Z,16.46
2018-07-14T01:25:06.886Z,16.49
2018-07-14T01:26:09.729Z,16.28
2018-07-14T01:27:12.550Z,16.27
2018-07-14T01:28:15.428Z,16.25
2018-07-14T01:29:18.212Z,16.36
2018-07-14T01:30:21.051Z,16.54
2018-07-14T01:31:24.219Z,16.59
2018-07-14T01:32:27.093Z,16.48
2018-07-14T01:33:29.958Z,16.47
2018-07-14T01:34:34.648Z,16.47
2018-07-14T01:35:38.688Z,16.52
2018-07-14T01:36:41.522Z,16.48
2018-07-14T01:37:44.713Z,16.37
2018-07-14T01:38:47.660Z,16.31
2018-07-14T01:39:50.459Z,16.33
2018-07-14T01:40:53.286Z,16.24
2018-07-14T01:41:56.900Z,16.33
2018-07-14T01:42:59.729Z,16.32
2018-07-14T01:44:02.873Z,16.23
2018-07-14T01:45:05.729Z,16.24
2018-07-14T01:46:08.513Z,16.17
2018-07-14T01:47:11.341Z,16.02
2018-07-14T01:48:14.173Z,15.98
2018-07-14T01:49:17.097Z,15.98
2018-07-14T01:50:20.308Z,16.02
2018-07-14T01:51:23.122Z,15.94
2018-07-14T01:52:25.984Z,15.90
2018-07-14T01:53:28.814Z,15.95
2018-07-14T01:54:31.647Z,16.02
2018-07-14T01:55:34.530Z,16.16
2018-07-14T01:56:38.494Z,16.30
2018-07-14T01:57:41.329Z,16.20
2018-07-14T01:58:44.181Z,16.00
2018-07-14T01:59:47.000Z,15.60
2018-07-14T02:00:49.857Z,15.76
2018-07-14T02:01:52.706Z,15.94
2018-07-14T02:02:55.837Z,15.98
2018-07-14T02:03:58.660Z,16.08
2018-07-14T02:05:01.513Z,16.08
2018-07-14T02:06:04.340Z,16.10
2018-07-14T02:07:08.280Z,16.13
2018-07-14T02:08:11.119Z,16.01
2018-07-14T02:09:14.229Z,16.02
2018-07-14T02:10:18.061Z,15.93
2018-07-14T02:11:20.924Z,15.82
2018-07-14T02:12:24.546Z,15.88
2018-07-14T02:13:27.346Z,16.02
2018-07-14T02:14:30.218Z,16.17
2018-07-14T02:15:33.385Z,16.19
2018-07-14T02:16:36.210Z,16.17
2018-07-14T02:17:39.873Z,16.18
2018-07-14T02:18:42.759Z,16.22
2018-07-14T02:19:45.585Z,16.21
2018-07-14T02:20:49.043Z,16.12
2018-07-14T02:21:52.165Z,15.97
2018-07-14T02:22:54.997Z,15.76
2018-07-14T02:23:57.821Z,15.76
2018-07-14T02:25:00.651Z,15.78
2018-07-14T02:26:03.492Z,15.72
2018-07-14T02:27:06.325Z,15.80
2018-07-14T02:28:09.212Z,15.83
2018-07-14T02:29:12.063Z,15.91
2018-07-14T02:30:15.451Z,15.97
2018-07-14T02:31:18.315Z,16.04
2018-07-14T02:32:21.132Z,16.03
2018-07-14T02:33:24.040Z,15.95
2018-07-14T02:34:27.209Z,15.73
2018-07-14T02:35:30.056Z,15.59
2018-07-14T02:36:32.878Z,15.44
2018-07-14T02:37:35.714Z,15.39
2018-07-14T02:38:38.593Z,15.27
2018-07-14T02:39:41.453Z,15.17
2018-07-14T02:40:44.594Z,15.13
2018-07-14T02:41:47.447Z,15.28
2018-07-14T02:42:50.273Z,15.45
2018-07-14T02:43:53.133Z,15.58
2018-07-14T02:44:56.104Z,15.67
2018-07-14T02:45:58.958Z,15.76
2018-07-14T02:47:02.078Z,15.74
2018-07-14T02:48:06.065Z,15.69
2018-07-14T02:49:08.913Z,15.73
2018-07-14T02:50:11.723Z,15.68
2018-07-14T02:51:14.573Z,15.68
2018-07-14T02:52:17.411Z,15.81
2018-07-14T02:53:22.412Z,15.88
2018-07-14T02:54:27.265Z,15.94
2018-07-14T02:55:30.139Z,15.94
2018-07-14T02:56:32.966Z,15.88
2018-07-14T02:57:35.763Z,15.91
2018-07-14T02:58:38.599Z,15.96
2018-07-14T02:59:41.753Z,16.03
2018-07-14T03:00:44.584Z,15.89
2018-07-14T03:01:47.405Z,15.87
2018-07-14T03:02:50.200Z,15.93
2018-07-14T03:03:53.009Z,15.74
2018-07-14T03:04:55.811Z,15.65
2018-07-14T03:05:58.894Z,15.60
2018-07-14T03:07:01.724Z,15.54
2018-07-14T03:08:04.547Z,15.51
2018-07-14T03:09:07.349Z,15.52
2018-07-14T03:10:10.463Z,15.42
2018-07-14T03:11:13.260Z,15.23
2018-07-14T03:12:16.340Z,15.09
2018-07-14T03:13:19.150Z,15.01
2018-07-14T03:14:23.531Z,15.09
2018-07-14T03:15:26.321Z,15.13
2018-07-14T03:16:29.147Z,15.23
2018-07-14T03:17:31.958Z,15.19
2018-07-14T03:18:35.075Z,15.18
2018-07-14T03:19:37.927Z,15.24
2018-07-14T03:20:40.761Z,15.26
2018-07-14T03:21:43.566Z,15.22
2018-07-14T03:22:46.395Z,15.13
2018-07-14T03:23:49.560Z,15.17
2018-07-14T03:24:52.826Z,15.20
2018-07-14T03:25:55.650Z,15.23
2018-07-14T03:26:58.484Z,15.36
2018-07-14T03:28:01.351Z,15.46
2018-07-14T03:29:04.182Z,15.53
2018-07-14T03:30:06.982Z,15.59
2018-07-14T03:31:10.089Z,15.47
2018-07-14T03:32:12.915Z,15.25
2018-07-14T03:33:15.805Z,15.14
2018-07-14T03:34:18.688Z,15.09
2018-07-14T03:35:21.485Z,14.97
2018-07-14T03:36:24.309Z,14.90
2018-07-14T03:37:27.462Z,14.96
2018-07-14T03:38:30.289Z,15.12
2018-07-14T03:39:33.123Z,15.19
2018-07-14T03:40:35.954Z,15.12
2018-07-14T03:41:38.777Z,15.16
2018-07-14T03:42:41.632Z,15.22
2018-07-14T03:43:44.758Z,15.20
2018-07-14T03:44:47.593Z,15.09
2018-07-14T03:45:50.526Z,14.94
2018-07-14T03:46:53.365Z,14.77
2018-07-14T03:47:56.199Z,14.71
2018-07-14T03:48:59.034Z,14.72
2018-07-14T03:50:02.151Z,14.54
2018-07-14T03:51:05.034Z,14.48
2018-07-14T03:52:07.852Z,14.60
2018-07-14T03:53:10.721Z,14.60
2018-07-14T03:54:13.540Z,14.64
2018-07-14T03:55:16.362Z,14.70
2018-07-14T03:56:19.542Z,14.66
2018-07-14T03:57:22.371Z,14.56
2018-07-14T03:58:25.196Z,14.48
2018-07-14T03:59:28.037Z,14.42
2018-07-14T04:00:30.891Z,14.52
2018-07-14T04:01:33.721Z,14.48
2018-07-14T04:02:36.646Z,14.34
2018-07-14T04:03:39.470Z,14.34
2018-07-14T04:04:42.294Z,14.40
2018-07-14T04:05:45.113Z,14.41
2018-07-14T04:06:47.933Z,14.33
2018-07-14T04:07:50.757Z,14.32
2018-07-14T04:08:53.908Z,14.35
2018-07-14T04:09:56.737Z,14.37
2018-07-14T04:10:59.618Z,14.40
2018-07-14T04:12:02.436Z,14.39
2018-07-14T04:13:05.263Z,14.42
2018-07-14T04:14:08.131Z,14.62
2018-07-14T04:15:13.544Z,14.88
2018-07-14T04:16:16.420Z,15.09
2018-07-14T04:17:19.246Z,15.14
2018-07-14T04:18:22.067Z,14.93
2018-07-14T04:19:24.952Z,14.98
2018-07-14T04:20:27.792Z,14.96
2018-07-14T04:21:30.905Z,14.95
2018-07-14T04:22:33.741Z,14.88
2018-07-14T04:23:36.569Z,14.63
2018-07-14T04:24:39.416Z,14.57
2018-07-14T04:25:42.252Z,14.63
2018-07-14T04:26:45.100Z,14.63
2018-07-14T04:27:48.472Z,14.40
2018-07-14T04:28:51.423Z,14.38
2018-07-14T04:29:54.279Z,14.59
2018-07-14T04:30:57.121Z,14.69
2018-07-14T04:32:00.011Z,14.86
2018-07-14T04:33:02.841Z,14.94
2018-07-14T04:34:06.013Z,15.10
2018-07-14T04:35:08.853Z,15.12
2018-07-14T04:36:11.683Z,15.12
2018-07-14T04:37:14.509Z,15.15
2018-07-14T04:38:17.357Z,15.22
2018-07-14T04:39:20.217Z,15.19
2018-07-14T04:40:23.500Z,15.17
2018-07-14T04:41:26.340Z,15.33
2018-07-14T04:42:29.225Z,15.31
2018-07-14T04:43:32.082Z,15.34
2018-07-14T04:44:34.909Z,15.43
2018-07-14T04:45:37.752Z,15.42
2018-07-14T04:46:41.518Z,15.42
2018-07-14T04:47:44.348Z,15.57
2018-07-14T04:48:47.156Z,15.62
2018-07-14T04:49:49.964Z,15.73
2018-07-14T04:50:52.800Z,15.71
2018-07-14T04:51:55.651Z,15.60
2018-07-14T04:52:59.402Z,15.54
2018-07-14T04:54:02.239Z,15.59
2018-07-14T04:55:05.048Z,15.67
2018-07-14T04:56:07.876Z,15.63
2018-07-14T04:57:10.728Z,15.69
2018-07-14T04:58:13.575Z,15.87
2018-07-14T04:59:16.683Z,15.84
2018-07-14T05:00:19.559Z,15.84
2018-07-14T05:01:22.388Z,16.08
2018-07-14T05:02:25.211Z,16.18
2018-07-14T05:03:28.146Z,16.05
2018-07-14T05:04:30.984Z,16.02
2018-07-14T05:05:34.144Z,16.12
2018-07-14T05:06:36.977Z,16.05
2018-07-14T05:07:39.886Z,15.87
2018-07-14T05:08:42.821Z,15.88
2018-07-14T05:09:45.672Z,15.92
2018-07-14T05:10:48.518Z,15.90
2018-07-14T05:11:51.665Z,15.84
2018-07-14T05:12:54.514Z,15.84
2018-07-14T05:13:57.356Z,15.96
2018-07-14T05:15:00.198Z,16.07
2018-07-14T05:16:06.490Z,16.04
2018-07-14T05:17:09.314Z,16.16
2018-07-14T05:18:12.481Z,16.31
2018-07-14T05:19:15.338Z,16.44
2018-07-14T05:20:18.178Z,16.52
2018-07-14T05:21:21.109Z,16.36
2018-07-14T05:22:23.933Z,16.29
2018-07-14T05:23:26.781Z,16.31
2018-07-14T05:24:29.900Z,16.29
2018-07-14T05:25:32.719Z,16.27
2018-07-14T05:26:35.529Z,16.26
2018-07-14T05:27:38.320Z,16.32
2018-07-14T05:28:41.908Z,16.42
2018-07-14T05:29:44.690Z,16.59
2018-07-14T05:30:47.769Z,16.57
2018-07-14T05:31:50.628Z,16.60
2018-07-14T05:32:53.439Z,16.70
2018-07-14T05:33:56.238Z,16.71
2018-07-14T05:34:59.019Z,16.85
2018-07-14T05:36:01.871Z,16.89
2018-07-14T05:37:05.341Z,16.84
2018-07-14T05:38:08.242Z,16.94
2018-07-14T05:39:11.072Z,17.01
2018-07-14T05:40:13.909Z,17.14
2018-07-14T05:41:16.724Z,17.17
2018-07-14T05:42:19.576Z,17.25
2018-07-14T05:43:22.949Z,17.26
2018-07-14T05:44:25.779Z,17.32
2018-07-14T05:45:28.725Z,17.21
2018-07-14T05:46:31.546Z,16.98
2018-07-14T05:47:34.353Z,16.89
2018-07-14T05:48:37.233Z,16.75
2018-07-14T05:49:40.365Z,16.69
2018-07-14T05:50:43.183Z,16.75
2018-07-14T05:51:46.048Z,16.67
2018-07-14T05:52:48.859Z,16.70
2018-07-14T05:53:51.699Z,16.86
2018-07-14T05:54:54.560Z,17.10
2018-07-14T05:55:57.715Z,17.34
2018-07-14T05:57:00.566Z,17.51
2018-07-14T05:58:03.443Z,17.56
2018-07-14T05:59:06.308Z,17.45
2018-07-14T06:00:09.639Z,17.38
2018-07-14T06:01:12.493Z,17.39
2018-07-14T06:02:15.743Z,17.56
2018-07-14T06:03:18.669Z,17.82
2018-07-14T06:04:21.509Z,17.61
2018-07-14T06:05:24.440Z,17.50
2018-07-14T06:06:27.307Z,17.40
2018-07-14T06:07:30.165Z,17.58
2018-07-14T06:08:33.316Z,17.89
2018-07-14T06:09:36.184Z,17.56
2018-07-14T06:10:39.056Z,17.52
2018-07-14T06:11:42.016Z,17.55
2018-07-14T06:12:44.981Z,17.56
2018-07-14T06:13:49.685Z,17.64
2018-07-14T06:14:53.160Z,17.74
2018-07-14T06:15:55.969Z,17.91
2018-07-14T06:16:58.799Z,17.92
2018-07-14T06:18:01.639Z,18.04
2018-07-14T06:19:04.502Z,18.15
2018-07-14T06:20:07.321Z,17.88
2018-07-14T06:21:10.438Z,17.63
2018-07-14T06:22:13.354Z,17.52
2018-07-14T06:23:16.215Z,17.62
2018-07-14T06:24:19.009Z,17.77
2018-07-14T06:25:21.834Z,17.67
2018-07-14T06:26:24.644Z,17.56
2018-07-14T06:27:27.823Z,17.71
2018-07-14T06:28:30.689Z,17.95
2018-07-14T06:29:33.482Z,18.02
2018-07-14T06:30:36.447Z,18.14
2018-07-14T06:31:39.330Z,18.10
2018-07-14T06:32:42.302Z,18.07
2018-07-14T06:33:45.421Z,18.24
2018-07-14T06:34:48.941Z,18.18
2018-07-14T06:35:51.794Z,18.06
2018-07-14T06:36:54.610Z,18.30
2018-07-14T06:37:59.467Z,18.38
2018-07-14T06:39:02.303Z,18.29
2018-07-14T06:40:05.446Z,18.55
2018-07-14T06:41:08.289Z,18.88
2018-07-14T06:42:11.075Z,18.68
2018-07-14T06:43:14.809Z,18.46
2018-07-14T06:44:19.382Z,18.68
2018-07-14T06:45:22.233Z,18.76
2018-07-14T06:46:27.072Z,18.93
2018-07-14T06:47:30.832Z,18.99
2018-07-14T06:48:33.730Z,18.94
2018-07-14T06:49:36.574Z,19.10
2018-07-14T06:50:39.375Z,19.12
2018-07-14T06:51:42.822Z,19.07
2018-07-14T06:52:46.959Z,19.01
2018-07-14T06:53:51.094Z,19.04
2018-07-14T06:54:53.961Z,19.19
2018-07-14T06:55:56.802Z,19.32
2018-07-14T06:56:59.791Z,19.22
2018-07-14T06:58:02.673Z,19.23
2018-07-14T06:59:05.799Z,19.34
2018-07-14T07:00:08.746Z,19.55
2018-07-14T07:01:12.543Z,19.61
2018-07-14T07:02:16.240Z,19.42
2018-07-14T07:03:19.971Z,19.39
2018-07-14T07:04:22.840Z,19.66
2018-07-14T07:05:26.771Z,19.78
2018-07-14T07:06:30.258Z,19.80
2018-07-14T07:07:33.135Z,20.15
2018-07-14T07:08:35.993Z,20.43
2018-07-14T07:09:38.833Z,20.53
2018-07-14T07:10:46.894Z,20.50
2018-07-14T07:11:50.067Z,20.53
2018-07-14T07:12:54.533Z,20.55
2018-07-14T07:13:57.408Z,20.77
2018-07-14T07:15:00.269Z,20.85
2018-07-14T07:16:03.521Z,20.80
2018-07-14T07:17:08.029Z,20.87
2018-07-14T07:18:12.876Z,20.89
2018-07-14T07:19:16.213Z,21.15
2018-07-14T07:20:19.138Z,21.02
2018-07-14T07:21:22.042Z,21.24
2018-07-14T07:22:24.916Z,21.31
2018-07-14T07:23:27.920Z,21.36
2018-07-14T07:24:31.853Z,21.47
2018-07-14T07:25:34.896Z,21.58
2018-07-14T07:26:37.810Z,21.62
2018-07-14T07:27:40.685Z,21.87
2018-07-14T07:28:43.594Z,22.02
2018-07-14T07:29:46.463Z,22.06
2018-07-14T07:30:50.552Z,22.05
2018-07-14T07:31:53.682Z,22.37
2018-07-14T07:32:59.576Z,21.95
2018-07-14T07:34:03.491Z,21.79
2018-07-14T07:35:06.957Z,21.80
2018-07-14T07:36:13.197Z,21.87
2018-07-14T07:37:16.535Z,21.75
2018-07-14T07:38:19.513Z,21.87
2018-07-14T07:39:24.604Z,22.17
2018-07-14T07:40:27.823Z,22.09
2018-07-14T07:41:31.470Z,22.17
2018-07-14T07:42:34.643Z,22.21
2018-07-14T07:43:38.457Z,22.26
2018-07-14T07:44:44.240Z,22.60
2018-07-14T07:45:47.145Z,22.43
2018-07-14T07:46:50.230Z,22.70
2018-07-14T07:47:54.085Z,23.00
2018-07-14T07:48:59.663Z,22.92
2018-07-14T07:50:02.853Z,22.63
2018-07-14T07:51:05.807Z,22.59
2018-07-14T07:52:08.727Z,22.40
2018-07-14T07:53:11.640Z,22.92
2018-07-14T07:54:14.774Z,23.00
2018-07-14T07:55:17.672Z,22.69
2018-07-14T07:56:21.211Z,22.45
2018-07-14T07:57:24.809Z,22.77
2018-07-14T07:58:28.509Z,22.95
2018-07-14T07:59:31.370Z,22.94
2018-07-14T08:00:39.065Z,22.98
2018-07-14T08:01:41.988Z,23.09
2018-07-14T08:02:45.178Z,22.83
2018-07-14T08:03:48.325Z,22.81
2018-07-14T08:04:51.789Z,22.46
2018-07-14T08:05:54.690Z,23.07
2018-07-14T08:06:57.545Z,23.31
2018-07-14T08:08:01.260Z,23.38
2018-07-14T08:09:05.038Z,23.48
2018-07-14T08:10:07.953Z,23.77
2018-07-14T08:11:11.528Z,23.73
2018-07-14T08:12:15.697Z,23.75
2018-07-14T08:13:18.586Z,23.41
2018-07-14T08:14:22.473Z,23.54
2018-07-14T08:15:25.988Z,23.53
2018-07-14T08:16:29.500Z,23.38
2018-07-14T08:17:32.339Z,23.77
2018-07-14T08:18:36.086Z,23.55
2018-07-14T08:19:39.080Z,23.77
2018-07-14T08:20:42.829Z,23.56
2018-07-14T08:21:47.501Z,23.59
2018-07-14T08:22:51.372Z,23.67
2018-07-14T08:23:57.934Z,23.60
2018-07-14T08:25:01.418Z,23.95
2018-07-14T08:26:04.397Z,24.14
2018-07-14T08:27:07.220Z,24.12
2018-07-14T08:28:11.273Z,24.16
2018-07-14T08:29:14.771Z,24.12
2018-07-14T08:30:17.590Z,24.42
2018-07-14T08:31:21.264Z,24.52
2018-07-14T08:32:24.098Z,24.41
2018-07-14T08:33:29.864Z,24.45
2018-07-14T08:34:33.930Z,24.50
2018-07-14T08:35:37.061Z,24.74
2018-07-14T08:36:39.957Z,24.96
2018-07-14T08:37:42.876Z,24.99
2018-07-14T08:38:45.994Z,25.23
2018-07-14T08:39:49.488Z,25.57
2018-07-14T08:40:52.638Z,25.44
2018-07-14T08:41:57.598Z,25.67
2018-07-14T08:43:00.663Z,25.73
2018-07-14T08:44:07.532Z,25.78
2018-07-14T08:45:10.454Z,26.01
2018-07-14T08:46:14.361Z,26.17
2018-07-14T08:47:21.054Z,26.18
2018-07-14T08:48:24.679Z,25.50
2018-07-14T08:49:28.951Z,25.61
2018-07-14T08:50:32.803Z,25.52
2018-07-14T08:51:37.153Z,25.16
2018-07-14T08:52:40.169Z,25.32
2018-07-14T08:53:45.640Z,24.95
2018-07-14T08:54:49.440Z,24.60
2018-07-14T08:55:54.070Z,25.04
2018-07-14T08:57:00.845Z,25.31
2018-07-14T08:58:05.189Z,25.70
2018-07-14T08:59:09.538Z,25.89
2018-07-14T09:00:13.970Z,25.53
2018-07-14T09:01:17.961Z,25.17
2018-07-14T09:02:22.291Z,25.61
2018-07-14T09:03:29.280Z,25.50
2018-07-14T09:04:38.415Z,25.65
2018-07-14T09:05:42.496Z,25.43
2018-07-14T09:06:45.350Z,24.92
2018-07-14T09:07:49.014Z,25.34
2018-07-14T09:08:54.655Z,25.64
2018-07-14T09:09:57.663Z,25.76
2018-07-14T09:12:11.375Z,25.07
2018-07-14T09:13:15.299Z,24.79
2018-07-14T09:14:19.194Z,24.28
2018-07-14T09:15:22.095Z,24.32
2018-07-14T09:16:25.204Z,24.60
2018-07-14T09:17:28.480Z,24.43
2018-07-14T09:18:31.329Z,24.79
2018-07-14T09:20:22.600Z,24.99
2018-07-14T09:21:27.612Z,25.02
2018-07-14T09:22:33.383Z,25.52
2018-07-14T09:23:37.321Z,25.50
2018-07-14T09:24:42.250Z,25.59
2018-07-14T09:25:45.057Z,25.84
2018-07-14T09:26:48.830Z,25.61
2018-07-14T09:27:51.888Z,26.23
2018-07-14T09:28:55.390Z,26.43
2018-07-14T09:29:59.896Z,26.66
2018-07-14T09:31:04.472Z,26.71
2018-07-14T09:32:07.369Z,26.77
2018-07-14T09:33:12.502Z,26.68
2018-07-14T09:34:16.199Z,26.80
2018-07-14T09:35:19.041Z,26.94
2018-07-14T09:36:22.296Z,27.15
2018-07-14T09:37:25.237Z,27.38
2018-07-14T09:38:29.639Z,26.93
2018-07-14T09:39:34.447Z,26.73
2018-07-14T09:40:37.365Z,26.98
2018-07-14T09:41:40.340Z,27.35
2018-07-14T09:42:43.476Z,27.54
2018-07-14T09:43:47.478Z,27.63
2018-07-14T09:44:50.504Z,27.77
2018-07-14T09:45:54.310Z,27.73
2018-07-14T09:46:57.958Z,27.48
2018-07-14T09:48:01.520Z,27.43
2018-07-14T09:49:10.675Z,28.01
2018-07-14T09:50:15.087Z,27.70
2018-07-14T09:51:19.660Z,26.03
2018-07-14T09:52:23.619Z,25.64
2018-07-14T09:53:26.440Z,25.24
2018-07-14T09:54:29.445Z,25.39
2018-07-14T09:55:34.990Z,25.17
2018-07-14T09:56:37.938Z,25.60
2018-07-14T09:57:42.241Z,25.75
2018-07-14T09:58:45.278Z,25.78
2018-07-14T09:59:48.429Z,25.89
2018-07-14T10:00:59.068Z,26.65
2018-07-14T10:02:04.595Z,26.99
2018-07-14T10:03:08.427Z,27.11
2018-07-14T10:04:12.408Z,27.19
2018-07-14T10:05:15.560Z,26.74
2018-07-14T10:06:20.061Z,26.51
2018-07-14T10:07:24.215Z,26.31
2018-07-14T10:08:27.867Z,25.82
2018-07-14T10:09:31.530Z,26.16
2018-07-14T10:10:34.629Z,26.01
2018-07-14T10:11:37.528Z,26.37
2018-07-14T10:12:40.399Z,26.73
2018-07-14T10:13:43.555Z,27.08
2018-07-14T10:14:46.365Z,27.51
2018-07-14T10:15:49.237Z,27.27
2018-07-14T10:16:52.074Z,27.31
2018-07-14T10:17:54.957Z,26.21
2018-07-14T10:18:57.907Z,26.11
2018-07-14T10:20:01.223Z,26.41
2018-07-14T10:21:05.129Z,26.42
2018-07-14T10:22:08.735Z,26.74
2018-07-14T10:23:14.678Z,27.25
2018-07-14T10:24:17.617Z,27.79
2018-07-14T10:25:20.927Z,26.58
2018-07-14T10:26:24.339Z,25.83
2018-07-14T10:27:27.267Z,26.14
2018-07-14T10:28:30.815Z,26.97
2018-07-14T10:29:33.869Z,27.39
2018-07-14T10:30:38.060Z,27.64
2018-07-14T10:31:41.698Z,27.21
2018-07-14T10:32:46.437Z,27.59
2018-07-14T10:33:50.771Z,27.39
2018-07-14T10:34:53.677Z,27.55
2018-07-14T10:35:58.749Z,27.32
2018-07-14T10:37:02.512Z,27.54
2018-07-14T10:38:05.466Z,28.10
2018-07-14T10:39:09.766Z,28.29
2018-07-14T10:40:12.637Z,28.48
2018-07-14T10:41:15.766Z,28.76
2018-07-14T10:42:19.778Z,28.86
2018-07-14T10:43:22.945Z,29.05
2018-07-14T10:44:25.823Z,29.20
2018-07-14T10:45:28.962Z,29.12
2018-07-14T10:46:31.822Z,27.99
2018-07-14T10:47:34.699Z,27.44
2018-07-14T10:48:37.680Z,27.59
2018-07-14T10:49:40.631Z,27.35
2018-07-14T10:50:43.531Z,27.39
2018-07-14T10:51:47.561Z,27.19
2018-07-14T10:52:50.491Z,26.56
2018-07-14T10:53:53.300Z,26.25
2018-07-14T10:54:56.531Z,26.51
2018-07-14T10:56:00.363Z,26.59
2018-07-14T10:57:04.059Z,26.76
2018-07-14T10:58:07.259Z,26.81
2018-07-14T10:59:10.130Z,26.83
2018-07-14T11:00:13.748Z,26.92
2018-07-14T11:01:16.566Z,27.00
2018-07-14T11:02:19.410Z,26.79
2018-07-14T11:03:22.272Z,27.01
2018-07-14T11:04:25.180Z,27.35
2018-07-14T11:05:27.981Z,27.56
2018-07-14T11:06:30.814Z,28.09
2018-07-14T11:07:33.708Z,28.14
2018-07-14T11:08:36.584Z,28.24
2018-07-14T11:09:41.210Z,27.85
2018-07-14T11:10:44.993Z,27.42
2018-07-14T11:11:47.824Z,27.29
2018-07-14T11:12:51.649Z,27.74
2018-07-14T11:13:54.788Z,27.71
2018-07-14T11:14:58.248Z,28.06
2018-07-14T11:16:03.281Z,28.65
2018-07-14T11:17:08.232Z,28.83
2018-07-14T11:18:12.450Z,28.76
2018-07-14T11:19:15.281Z,28.63
2018-07-14T11:20:18.447Z,28.93
2018-07-14T11:21:21.294Z,28.95
2018-07-14T11:22:26.399Z,29.01
2018-07-14T11:23:32.680Z,28.12
2018-07-14T11:24:38.625Z,26.68
2018-07-14T11:25:42.324Z,26.02
2018-07-14T11:26:46.633Z,25.69
2018-07-14T11:27:51.141Z,26.27
2018-07-14T11:28:54.748Z,26.22
2018-07-14T11:29:57.572Z,26.53
2018-07-14T11:31:00.589Z,26.77
2018-07-14T11:32:03.436Z,26.90
2018-07-14T11:33:09.800Z,26.93
2018-07-14T11:34:12.646Z,26.98
2018-07-14T11:35:18.869Z,27.36
2018-07-14T11:36:21.693Z,27.97
2018-07-14T11:37:24.719Z,28.49
2018-07-14T11:38:27.526Z,28.55
2018-07-14T11:39:30.353Z,27.95
2018-07-14T11:40:33.205Z,27.44
2018-07-14T11:41:36.460Z,26.81
2018-07-14T11:42:39.287Z,26.32
2018-07-14T11:43:43.670Z,26.14
2018-07-14T11:44:46.553Z,26.74
2018-07-14T11:45:49.414Z,27.22
2018-07-14T11:46:52.220Z,26.69
2018-07-14T11:47:58.639Z,26.90
2018-07-14T11:49:02.983Z,27.21
2018-07-14T11:50:07.307Z,27.68
2018-07-14T11:51:11.102Z,27.46
2018-07-14T11:52:13.933Z,26.81
2018-07-14T11:53:16.798Z,26.04
2018-07-14T11:54:20.141Z,26.02
2018-07-14T11:55:22.996Z,26.73
2018-07-14T11:56:25.948Z,26.57
2018-07-14T11:57:28.773Z,27.45
2018-07-14T11:58:31.602Z,27.47
2018-07-14T11:59:34.488Z,27.29
2018-07-14T12:00:38.542Z,27.13
2018-07-14T12:01:41.460Z,26.89
2018-07-14T12:02:45.456Z,26.63
2018-07-14T12:03:48.276Z,26.88
2018-07-14T12:04:51.096Z,25.98
2018-07-14T12:05:54.592Z,26.14
2018-07-14T12:06:58.767Z,26.23
2018-07-14T12:08:01.700Z,26.19
2018-07-14T12:09:07.609Z,26.45
2018-07-14T12:10:11.577Z,25.89
2018-07-14T12:11:15.424Z,25.82
2018-07-14T12:12:18.864Z,25.81
2018-07-14T12:13:23.516Z,25.75
2018-07-14T12:14:28.158Z,25.80
2018-07-14T12:15:30.962Z,25.37
2018-07-14T12:16:33.861Z,25.30
2018-07-14T12:17:37.476Z,25.64
2018-07-14T12:18:41.398Z,26.15
2018-07-14T12:19:49.676Z,26.52
2018-07-14T12:20:52.479Z,26.69
2018-07-14T12:21:55.462Z,27.16
2018-07-14T12:22:58.865Z,26.77
2018-07-14T12:24:02.938Z,26.94
2018-07-14T12:25:05.897Z,27.56
2018-07-14T12:26:10.068Z,27.64
2018-07-14T12:27:12.905Z,27.07
2018-07-14T12:28:15.772Z,26.82
2018-07-14T12:29:18.625Z,27.13
2018-07-14T12:30:21.724Z,27.30
2018-07-14T12:31:24.580Z,27.03
2018-07-14T12:32:27.739Z,27.38
2018-07-14T12:33:32.064Z,27.04
2018-07-14T12:34:36.440Z,27.02
2018-07-14T12:35:40.869Z,26.78
2018-07-14T12:36:44.506Z,26.76
2018-07-14T12:37:47.318Z,26.32
2018-07-14T12:38:50.477Z,26.53
2018-07-14T12:39:53.426Z,26.30
2018-07-14T12:40:57.256Z,26.22
2018-07-14T12:42:02.693Z,26.55
2018-07-14T12:43:06.796Z,27.36
2018-07-14T12:44:09.708Z,27.99
2018-07-14T12:45:12.861Z,28.57
2018-07-14T12:46:15.728Z,28.87
2018-07-14T12:47:18.618Z,27.92
2018-07-14T12:48:21.569Z,28.03
2018-07-14T12:49:26.669Z,27.95
2018-07-14T12:50:30.583Z,28.45
2018-07-14T12:51:34.703Z,28.22
2018-07-14T12:52:37.780Z,28.13
2018-07-14T12:53:40.648Z,28.24
2018-07-14T12:54:43.491Z,27.73
2018-07-14T12:55:46.895Z,27.87
2018-07-14T12:56:49.726Z,27.97
2018-07-14T12:57:53.850Z,28.46
2018-07-14T12:58:56.810Z,27.84
2018-07-14T13:00:00.479Z,27.82
2018-07-14T13:01:03.415Z,27.71
2018-07-14T13:02:06.268Z,28.41
2018-07-14T13:03:13.929Z,28.53
2018-07-14T13:04:17.100Z,28.95
2018-07-14T13:05:20.567Z,29.56
2018-07-14T13:06:25.393Z,29.04
2018-07-14T13:07:28.294Z,28.16
2018-07-14T13:08:31.219Z,27.67
2018-07-14T13:09:35.029Z,26.91
2018-07-14T13:10:39.276Z,27.55
2018-07-14T13:11:43.970Z,26.95
2018-07-14T13:12:47.452Z,27.30
2018-07-14T13:13:52.537Z,27.92
2018-07-14T13:14:55.390Z,27.72
2018-07-14T13:15:58.265Z,27.78
2018-07-14T13:17:01.496Z,28.39
2018-07-14T13:18:04.572Z,28.44
2018-07-14T13:19:08.336Z,28.92
2018-07-14T13:20:11.177Z,28.02
2018-07-14T13:21:14.055Z,28.10
2018-07-14T13:22:16.913Z,27.99
2018-07-14T13:23:21.945Z,28.43
2018-07-14T13:24:25.453Z,28.74
2018-07-14T13:25:28.318Z,28.77
2018-07-14T13:26:31.174Z,29.11
2018-07-14T13:27:35.222Z,29.45
2018-07-14T13:28:38.267Z,29.68
2018-07-14T13:29:45.859Z,29.20
2018-07-14T13:30:51.672Z,28.37
2018-07-14T13:31:55.247Z,28.15
2018-07-14T13:32:58.348Z,28.47
2018-07-14T13:34:05.263Z,29.06
2018-07-14T13:35:08.161Z,29.61
2018-07-14T13:36:14.152Z,29.40
2018-07-14T13:37:19.616Z,29.18
2018-07-14T13:38:23.429Z,28.81